Time;durP1;ratioP1;P1;durP2;ratioP2;P2;SDS_P1;SDS_P2;PMS_P1;PMS_P2;Temp;Humidity;BMP_temperature;BMP_pressure;BME280_temperature;BME280_humidity;BME280_pressure;Samples;Min_cycle;Max_cycle;Signal;HPM_P1;HPM_P2
2022/09/28 00:01:43;;;;;;;;;1.00;1.00;;;;;13.37;76.21;99322.94;5019067;28;45466;-54
2022/09/28 00:04:08;;;;;;;;;0.60;0.60;;;;;13.39;76.02;99319.91;5036819;28;45584;-56
2022/09/28 00:06:34;;;;;;;;;3.00;3.00;;;;;13.49;75.26;99331.03;5018963;28;45991;-57
2022/09/28 00:09:00;;;;;;;;;1.00;1.00;;;;;13.53;74.79;99328.56;5036710;28;45542;-57
2022/09/28 00:11:26;;;;;;;;;2.00;2.00;;;;;13.57;74.63;99326.13;5036276;28;45262;-55
2022/09/28 00:13:55;;;;;;;;;1.00;1.00;;;;;13.56;74.07;99319.78;5037111;28;45615;-57
2022/09/28 00:16:22;;;;;;;;;3.60;2.00;;;;;13.51;73.47;99320.56;5013638;28;46441;-57
2022/09/28 00:18:49;;;;;;;;;1.00;1.00;;;;;13.54;72.79;99328.31;4998655;28;45337;-56
2022/09/28 00:21:17;;;;;;;;;2.80;0.80;;;;;13.55;73.41;99331.88;4998771;28;45474;-57
2022/09/28 00:26:27;;;;;;;;;2.80;1.80;;;;;13.52;72.88;99324.16;5016098;28;45516;-57
2022/09/28 00:28:53;;;;;;;;;3.20;2.40;;;;;13.55;72.18;99320.84;4998449;28;45379;-58
2022/09/28 00:31:19;;;;;;;;;0.80;0.80;;;;;13.56;72.29;99325.31;5015759;28;45363;-58
2022/09/28 00:33:44;;;;;;;;;1.50;1.50;;;;;13.18;71.95;99272.94;4982098;28;45375;-58
2022/09/28 00:36:10;;;;;;;;;1.50;1.50;;;;;13.55;71.23;99324.47;4998186;28;45753;-55
2022/09/28 00:38:35;;;;;;;;;4.00;4.00;;;;;13.53;71.09;99325.81;4997882;28;45311;-57
2022/09/28 00:41:01;;;;;;;;;5.00;3.00;;;;;13.51;70.69;99328.03;4981732;28;45477;-58
2022/09/28 00:43:27;;;;;;;;;4.00;4.00;;;;;13.48;70.17;99331.28;4997997;28;45391;-58
2022/09/28 00:45:56;;;;;;;;;1.50;1.50;;;;;13.36;70.07;99310.25;4997888;28;45705;-57
2022/09/28 00:48:21;;;;;;;;;1.40;1.40;;;;;13.37;70.03;99322.09;4981630;28;45403;-58
2022/09/28 00:50:47;;;;;;;;;5.25;2.50;;;;;12.82;69.93;99234.13;5015982;28;45339;-57
2022/09/28 00:53:22;;;;;;;;;3.50;2.25;;;;;13.33;70.58;99319.03;4998577;28;45341;-57
2022/09/28 00:55:59;;;;;;;;;3.60;3.00;;;;;13.32;70.84;99314.63;4997587;28;48244;-58
2022/09/28 00:58:29;;;;;;;;;1.80;1.80;;;;;13.32;70.80;99320.16;4997395;28;45357;-57
2022/09/28 01:00:55;;;;;;;;;1.00;1.00;;;;;13.28;71.41;99310.75;4981690;28;45475;-57
2022/09/28 01:03:20;;;;;;;;;3.00;1.25;;;;;13.35;71.74;99313.28;5015927;28;45439;-55
2022/09/28 01:05:46;;;;;;;;;1.75;1.00;;;;;13.34;71.87;99315.19;5015102;28;47073;-56
2022/09/28 01:08:13;;;;;;;;;2.00;1.00;;;;;13.31;72.11;99315.72;4997659;28;45199;-55
2022/09/28 01:10:38;;;;;;;;;1.40;1.40;;;;;13.32;72.80;99314.63;4981282;28;45359;-56
2022/09/28 01:13:04;;;;;;;;;3.00;3.00;;;;;13.05;72.22;99271.47;4997756;28;45352;-57
2022/09/28 01:15:30;;;;;;;;;2.80;2.40;;;;;13.29;72.37;99318.75;4997346;28;46182;-56
2022/09/28 01:18:01;;;;;;;;;3.00;2.00;;;;;13.29;73.03;99309.66;4980329;28;45348;-57
2022/09/28 01:20:41;;;;;;;;;3.00;2.00;;;;;13.24;73.04;99304.94;4982779;28;45603;-62
2022/09/28 01:23:36;;;;;;;;;2.20;2.20;;;;;13.31;73.18;99309.38;4976122;28;45514;-57
2022/09/28 01:26:08;;;;;;;;;3.80;0.60;;;;;13.32;73.65;99309.13;4976225;28;46632;-57
2022/09/28 01:28:35;;;;;;;;;3.00;2.40;;;;;13.28;73.62;99297.81;4991762;28;45363;-57
2022/09/28 01:31:14;;;;;;;;;2.80;1.00;;;;;13.29;73.90;99298.66;4975241;28;45476;-59
2022/09/28 01:33:54;;;;;;;;;1.00;1.00;;;;;12.68;73.74;99203.47;4995328;28;45530;-55
2022/09/28 01:36:35;;;;;;;;;1.40;1.00;;;;;13.04;74.10;99267.06;4961866;28;46562;-54
2022/09/28 01:39:06;;;;;;;;;0.60;0.60;;;;;13.20;74.31;99301.06;4978156;28;45461;-56
2022/09/28 01:41:32;;;;;;;;;1.40;1.00;;;;;13.28;74.62;99313.50;4962509;28;45391;-55
2022/09/28 01:44:01;;;;;;;;;1.75;1.50;;;;;13.27;74.21;99307.16;4977803;28;45500;-57
2022/09/28 01:46:33;;;;;;;;;3.20;2.00;;;;;13.23;74.33;99302.47;4945932;28;47447;-57
2022/09/28 01:49:03;;;;;;;;;2.20;2.00;;;;;13.22;74.33;99293.34;4977595;28;45465;-56
2022/09/28 01:51:40;;;;;;;;;1.20;1.20;;;;;13.25;74.29;99303.03;4961770;28;45385;-57
2022/09/28 01:54:10;;;;;;;;;1.80;1.80;;;;;13.19;74.20;99276.53;4977469;28;45400;-56
2022/09/28 01:56:42;;;;;;;;;3.00;1.00;;;;;13.30;74.06;99286.53;4945137;28;47735;-56
2022/09/28 01:59:11;;;;;;;;;1.60;1.60;;;;;13.28;74.07;99291.44;4977497;28;45484;-53
2022/09/28 02:02:00;;;;;;;;;1.00;1.00;;;;;13.22;73.77;99287.00;4961555;28;45261;-56
2022/09/28 02:04:31;;;;;;;;;2.00;1.00;;;;;13.07;74.37;99266.53;4963229;28;45565;-54
2022/09/28 02:07:07;;;;;;;;;2.40;0.60;;;;;13.27;73.97;99284.28;4961850;28;45984;-56
2022/09/28 02:09:47;;;;;;;;;3.80;1.00;;;;;13.27;73.77;99284.28;4977731;28;45311;-56
2022/09/28 02:12:22;;;;;;;;;0.60;0.60;;;;;13.11;73.40;99259.41;4977460;28;45439;-56
2022/09/28 02:14:48;;;;;;;;;0.40;0.40;;;;;13.28;73.71;99275.75;4978080;28;45440;-54
2022/09/28 02:17:15;;;;;;;;;3.00;2.00;;;;;13.30;73.80;99281.00;4984169;28;46406;-56
2022/09/28 02:19:40;;;;;;;;;3.60;1.40;;;;;13.17;73.13;99262.19;5014788;28;45403;-55
2022/09/28 02:22:26;;;;;;;;;2.75;2.00;;;;;13.26;73.33;99283.47;4980674;28;45380;-55
2022/09/28 02:24:57;;;;;;;;;2.80;1.00;;;;;13.08;73.80;99246.16;4997350;28;45426;-56
2022/09/28 02:27:40;;;;;;;;;1.20;0.80;;;;;13.25;74.04;99269.97;4980117;28;46495;-53
2022/09/28 02:30:06;;;;;;;;;3.60;1.00;;;;;13.17;73.69;99253.94;4980284;28;45426;-52
2022/09/28 02:32:39;;;;;;;;;2.00;0.60;;;;;13.19;73.74;99263.59;4980051;28;45468;-55
2022/09/28 02:37:59;;;;;;;;;1.00;0.20;;;;;13.18;73.33;99250.88;4972269;28;45576;-53
2022/09/28 02:40:28;;;;;;;;;1.25;1.00;;;;;13.09;73.28;99247.84;5014223;28;45812;-56
2022/09/28 02:43:22;;;;;;;;;1.00;1.00;;;;;13.29;73.29;99279.38;4981052;28;45442;-57
2022/09/28 02:46:09;;;;;;;;;1.00;1.00;;;;;13.29;73.40;99274.66;4996704;28;45514;-55
2022/09/28 02:49:11;;;;;;;;;2.20;1.20;;;;;13.11;73.26;99242.88;5002805;28;45675;-54
2022/09/28 02:51:43;;;;;;;;;2.20;2.00;;;;;13.29;73.80;99263.63;5011406;28;45454;-55
2022/09/28 02:54:25;;;;;;;;;1.60;1.60;;;;;13.30;73.34;99261.72;4996597;28;45410;-55
2022/09/28 02:57:11;;;;;;;;;1.40;1.40;;;;;13.17;73.34;99243.72;4996371;28;45423;-54
2022/09/28 02:59:52;;;;;;;;;2.60;1.20;;;;;13.27;72.65;99276.03;5012849;28;46669;-55
2022/09/28 03:02:24;;;;;;;;;2.60;2.60;;;;;13.26;73.09;99277.13;4993556;28;45554;-55
2022/09/28 03:05:17;;;;;;;;;1.00;1.00;;;;;13.27;72.90;99279.63;5010135;28;45413;-53
2022/09/28 03:07:51;;;;;;;;;1.60;0.40;;;;;13.21;72.78;99277.94;4998096;28;45486;-54
2022/09/28 03:10:32;;;;;;;;;1.00;1.00;;;;;13.23;72.90;99277.66;4999356;28;46578;-54
2022/09/28 03:12:58;;;;;;;;;3.60;1.00;;;;;13.11;72.76;99258.56;5017167;28;45434;-52
2022/09/28 03:15:26;;;;;;;;;2.25;2.25;;;;;13.16;72.82;99275.13;4983486;28;45762;-53
2022/09/28 03:17:52;;;;;;;;;3.00;1.40;;;;;13.15;72.34;99277.03;4999320;28;45523;-55
2022/09/28 03:20:17;;;;;;;;;5.25;3.50;;;;;13.12;73.09;99274.00;5016948;28;46255;-55
2022/09/28 03:22:43;;;;;;;;;3.00;1.00;;;;;12.91;73.07;99232.53;5017318;28;45830;-55
2022/09/28 03:25:09;;;;;;;;;2.25;2.25;;;;;13.12;72.78;99272.06;4999307;28;45454;-55
2022/09/28 03:27:34;;;;;;;;;1.00;1.00;;;;;13.11;73.08;99275.94;4999230;28;45394;-56
2022/09/28 03:30:00;;;;;;;;;1.25;0.75;;;;;13.11;73.12;99275.94;4999273;28;45584;-54
2022/09/28 03:32:25;;;;;;;;;5.00;1.75;;;;;13.11;73.09;99272.34;5016294;28;45434;-55
2022/09/28 03:34:51;;;;;;;;;2.00;1.25;;;;;12.37;72.90;99157.28;5016491;28;45322;-56
2022/09/28 03:37:16;;;;;;;;;2.50;1.00;;;;;13.12;72.50;99283.09;5016891;28;45458;-55
2022/09/28 03:39:42;;;;;;;;;3.50;3.25;;;;;13.12;72.72;99271.22;5016846;28;46490;-54
2022/09/28 03:42:07;;;;;;;;;2.25;1.25;;;;;13.14;72.67;99282.84;5016596;28;45370;-55
2022/09/28 03:44:33;;;;;;;;;2.50;2.50;;;;;13.14;72.83;99291.09;5017193;28;45479;-55
2022/09/28 03:46:58;;;;;;;;;1.00;0.00;;;;;13.13;72.72;99289.44;4999096;28;45444;-54
2022/09/28 03:49:24;;;;;;;;;2.50;1.00;;;;;13.08;72.69;99281.94;5016557;28;45459;-54
2022/09/28 03:51:49;;;;;;;;;4.00;3.00;;;;;13.09;72.83;99285.56;5016679;28;45381;-53
2022/09/28 03:54:14;;;;;;;;;2.00;2.00;;;;;13.10;73.02;99293.56;4999029;28;45333;-55
2022/09/28 03:56:40;;;;;;;;;0.00;0.00;;;;;13.13;72.72;99289.44;5016966;28;45302;-55
2022/09/28 03:59:06;;;;;;;;;2.00;1.50;;;;;13.11;72.50;99283.34;5016295;28;45412;-55
2022/09/28 04:01:31;;;;;;;;;3.00;1.00;;;;;13.08;72.52;99276.44;4982438;28;45408;-54
2022/09/28 04:03:57;;;;;;;;;1.00;1.00;;;;;13.10;72.05;99284.44;5016469;28;45357;-53
2022/09/28 04:06:23;;;;;;;;;2.50;1.00;;;;;13.10;72.35;99292.72;4999213;28;45269;-53
2022/09/28 04:08:49;;;;;;;;;1.00;1.00;;;;;13.09;72.17;99288.31;4998813;28;46169;-56
2022/09/28 04:11:14;;;;;;;;;3.00;3.00;;;;;13.07;72.47;99296.81;5016194;28;45295;-53
2022/09/28 04:13:40;;;;;;;;;3.00;1.00;;;;;13.05;72.02;99301.78;5016829;28;45287;-55
2022/09/28 04:16:05;;;;;;;;;1.50;1.50;;;;;12.91;71.94;99273.03;4988796;28;45593;-55
2022/09/28 04:18:32;;;;;;;;;1.00;1.00;;;;;12.81;72.03;99271.84;4980939;28;47107;-55
2022/09/28 04:21:05;;;;;;;;;1.00;1.00;;;;;13.04;71.87;99308.38;4933455;28;47046;-54
2022/09/28 04:23:31;;;;;;;;;2.00;1.00;;;;;13.06;72.02;99310.84;5012349;28;45342;-54
2022/09/28 04:25:57;;;;;;;;;2.60;1.60;;;;;13.07;72.07;99315.28;4998584;28;45431;-55
2022/09/28 04:31:10;;;;;;;;;2.00;2.00;;;;;12.94;71.82;99305.53;5016019;28;45523;-54
2022/09/28 04:33:36;;;;;;;;;1.20;1.00;;;;;12.97;72.31;99311.34;4998280;28;45337;-55
2022/09/28 04:36:02;;;;;;;;;2.75;0.75;;;;;12.96;72.38;99314.38;5016088;28;45552;-55
2022/09/28 04:38:27;;;;;;;;;2.75;1.50;;;;;12.28;72.07;99200.94;5016026;28;45248;-54
2022/09/28 04:40:53;;;;;;;;;2.00;0.75;;;;;13.01;72.25;99315.25;5016049;28;45353;-56
2022/09/28 04:43:18;;;;;;;;;0.00;0.00;;;;;12.88;71.81;99297.22;5016018;28;45416;-55
2022/09/28 04:45:44;;;;;;;;;2.00;2.00;;;;;13.03;72.06;99323.25;5015872;28;45515;-54
2022/09/28 04:48:09;;;;;;;;;1.00;1.00;;;;;12.99;71.93;99317.44;5015495;28;46467;-52
2022/09/28 04:50:34;;;;;;;;;3.00;3.00;;;;;12.71;71.58;99275.34;5015763;28;45378;-55
2022/09/28 04:53:00;;;;;;;;;0.00;0.00;;;;;12.99;72.13;99319.34;5015890;28;45347;-54
2022/09/28 04:55:31;;;;;;;;;3.80;1.40;;;;;13.07;71.95;99334.56;4997691;28;45380;-56
2022/09/28 04:58:02;;;;;;;;;2.80;2.00;;;;;13.09;71.90;99330.47;5015204;28;46430;-55
2022/09/28 05:00:33;;;;;;;;;4.00;2.00;;;;;13.09;71.65;99327.72;5015384;28;45341;-51
2022/09/28 05:02:59;;;;;;;;;2.20;2.20;;;;;12.84;71.80;99293.34;5015601;28;45430;-55
2022/09/28 05:05:25;;;;;;;;;2.00;2.00;;;;;12.97;71.90;99325.13;5015446;28;45339;-56
2022/09/28 05:07:50;;;;;;;;;2.25;1.50;;;;;12.98;71.95;99320.44;5015517;28;45627;-56
2022/09/28 05:10:17;;;;;;;;;1.00;1.00;;;;;12.97;71.72;99330.63;5015523;28;45424;-54
2022/09/28 05:12:43;;;;;;;;;1.00;1.00;;;;;12.97;72.14;99321.53;5015406;28;45408;-56
2022/09/28 05:15:09;;;;;;;;;2.00;1.00;;;;;12.74;71.99;99282.25;4998109;28;45406;-52
2022/09/28 05:17:34;;;;;;;;;2.00;2.00;;;;;12.90;72.10;99316.25;5006382;28;46279;-54
2022/09/28 05:20:01;;;;;;;;;3.00;2.00;;;;;12.90;72.20;99307.16;5000738;28;45344;-54
2022/09/28 05:22:27;;;;;;;;;1.60;1.60;;;;;12.91;72.04;99314.34;5019745;28;45649;-51
2022/09/28 05:24:53;;;;;;;;;1.50;1.25;;;;;12.93;72.61;99314.88;5017557;28;45567;-55
2022/09/28 05:27:19;;;;;;;;;3.00;2.40;;;;;12.92;72.12;99304.97;5034965;28;45540;-55
2022/09/28 05:29:45;;;;;;;;;3.00;3.00;;;;;12.90;72.21;99307.97;5033947;28;45411;-54
2022/09/28 05:32:10;;;;;;;;;2.25;2.25;;;;;12.92;72.03;99310.47;5017468;28;45379;-55
2022/09/28 05:34:36;;;;;;;;;4.00;3.25;;;;;12.69;72.13;99276.69;5035376;28;45360;-54
2022/09/28 05:37:01;;;;;;;;;3.00;2.00;;;;;12.92;71.94;99316.00;5035392;28;45896;-53
2022/09/28 05:39:27;;;;;;;;;3.50;2.50;;;;;12.92;72.03;99319.56;5035125;28;45275;-51
2022/09/28 05:41:53;;;;;;;;;3.00;1.75;;;;;12.94;71.90;99322.06;5035085;28;45406;-54
2022/09/28 05:44:19;;;;;;;;;5.00;2.00;;;;;12.94;71.92;99322.91;5035399;28;45522;-54
2022/09/28 05:46:44;;;;;;;;;1.00;1.00;;;;;12.91;71.53;99317.91;5034770;28;45858;-54
2022/09/28 05:49:10;;;;;;;;;3.75;1.75;;;;;12.87;71.67;99323.09;5000728;28;45409;-59
2022/09/28 05:51:36;;;;;;;;;3.50;2.00;;;;;12.91;71.56;99322.59;5035399;28;45545;-54
2022/09/28 05:54:01;;;;;;;;;2.25;2.25;;;;;12.88;71.72;99316.50;5017291;28;45573;-56
2022/09/28 05:56:29;;;;;;;;;1.00;1.00;;;;;12.96;71.53;99322.66;5035015;28;45576;-53
2022/09/28 05:58:57;;;;;;;;;2.00;2.00;;;;;12.91;71.70;99328.91;5016849;28;45447;-55
2022/09/28 06:01:23;;;;;;;;;2.00;2.00;;;;;12.95;71.54;99338.31;5035157;28;45363;-56
2022/09/28 06:03:48;;;;;;;;;2.60;2.60;;;;;12.98;71.52;99335.03;5016742;28;45567;-53
2022/09/28 06:06:14;;;;;;;;;5.00;3.00;;;;;13.04;71.49;99343.34;5034685;28;46488;-55
2022/09/28 06:08:42;;;;;;;;;3.50;2.00;;;;;13.01;71.32;99331.78;5034530;28;45447;-55
2022/09/28 06:11:11;;;;;;;;;2.00;2.00;;;;;12.76;71.15;99299.34;5034985;28;45406;-56
2022/09/28 06:13:37;;;;;;;;;3.40;2.20;;;;;13.10;70.67;99345.03;5034686;28;45314;-53
2022/09/28 06:16:03;;;;;;;;;3.20;2.20;;;;;12.98;70.47;99318.50;5016326;28;45836;-53
2022/09/28 06:18:29;;;;;;;;;2.60;2.00;;;;;13.08;70.04;99334.28;5003140;28;45425;-54
2022/09/28 06:20:54;;;;;;;;;5.00;3.25;;;;;13.06;70.72;99339.25;4994999;28;45561;-55
2022/09/28 06:23:20;;;;;;;;;1.00;1.00;;;;;13.06;70.43;99347.50;5021579;28;45739;-54
2022/09/28 06:25:45;;;;;;;;;3.50;2.00;;;;;12.94;70.12;99322.06;5015040;28;46921;-54
2022/09/28 06:28:12;;;;;;;;;6.00;4.00;;;;;13.11;70.09;99346.69;5034305;28;45499;-53
2022/09/28 06:30:38;;;;;;;;;2.00;1.80;;;;;12.96;70.53;99317.94;5034700;28;45402;-53
2022/09/28 06:33:04;;;;;;;;;2.00;2.00;;;;;13.15;70.11;99351.41;5016571;28;45542;-54
2022/09/28 06:35:30;;;;;;;;;2.00;2.00;;;;;13.09;70.18;99344.25;5034684;28;46241;-52
2022/09/28 06:37:56;;;;;;;;;3.00;1.75;;;;;13.16;69.48;99355.03;4999925;28;45328;-52
2022/09/28 06:40:22;;;;;;;;;3.40;2.40;;;;;13.18;69.26;99363.84;5018298;28;45559;-55
2022/09/28 06:42:55;;;;;;;;;4.00;3.75;;;;;13.19;69.49;99360.00;5038154;28;45492;-55
2022/09/28 06:45:24;;;;;;;;;3.00;3.00;;;;;13.19;69.63;99364.69;5037635;28;46522;-54
2022/09/28 06:47:57;;;;;;;;;4.40;2.00;;;;;13.06;69.21;99349.41;5038019;28;45453;-53
2022/09/28 06:50:28;;;;;;;;;3.80;2.40;;;;;13.14;69.32;99366.28;5037434;28;45438;-51
2022/09/28 06:52:53;;;;;;;;;4.00;3.00;;;;;13.24;69.07;99376.56;5020842;28;45853;-56
2022/09/28 06:55:19;;;;;;;;;2.00;2.00;;;;;13.23;68.88;99376.84;5019768;28;45979;-53
2022/09/28 06:57:45;;;;;;;;;3.00;2.00;;;;;13.20;69.38;99369.09;5019321;28;45733;-57
2022/09/28 07:00:11;;;;;;;;;2.00;2.00;;;;;13.26;68.78;99374.41;5019855;28;45370;-57
2022/09/28 07:02:37;;;;;;;;;2.00;2.00;;;;;13.23;68.87;99371.34;5020212;28;45455;-55
2022/09/28 07:05:03;;;;;;;;;2.50;1.50;;;;;13.17;68.45;99356.66;5019349;28;46159;-56
2022/09/28 07:07:30;;;;;;;;;3.50;3.50;;;;;13.36;68.31;99389.34;5019507;28;45488;-56
2022/09/28 07:09:55;;;;;;;;;3.80;2.40;;;;;13.39;68.81;99392.38;5037546;28;45361;-55
2022/09/28 07:12:22;;;;;;;;;3.25;2.25;;;;;13.24;68.65;99375.75;5037558;28;45409;-57
2022/09/28 07:14:48;;;;;;;;;3.40;2.40;;;;;13.42;68.31;99389.13;5019934;28;46519;-57
2022/09/28 07:17:15;;;;;;;;;3.00;3.00;;;;;13.47;68.50;99398.53;5036561;28;45382;-56
2022/09/28 07:19:40;;;;;;;;;3.00;3.00;;;;;13.22;68.35;99355.88;5017747;28;45438;-57
2022/09/28 07:22:06;;;;;;;;;4.00;3.25;;;;;13.40;67.95;99402.31;5017305;28;45316;-55
2022/09/28 07:24:31;;;;;;;;;3.50;1.75;;;;;13.44;67.54;99399.84;5008928;28;45807;-55
2022/09/28 07:26:57;;;;;;;;;3.00;2.00;;;;;13.45;67.81;99404.28;5017094;28;45462;-57
2022/09/28 07:29:22;;;;;;;;;4.00;4.00;;;;;13.36;67.32;99392.94;5016437;28;45445;-56
2022/09/28 07:31:48;;;;;;;;;4.00;2.50;;;;;13.43;67.75;99406.47;5017476;28;45540;-58
2022/09/28 07:34:13;;;;;;;;;3.25;3.25;;;;;12.87;67.77;99311.28;5016279;28;46141;-58
2022/09/28 07:36:39;;;;;;;;;2.00;1.00;;;;;13.49;67.00;99404.59;5016547;28;45465;-57
2022/09/28 07:39:04;;;;;;;;;2.00;2.00;;;;;13.45;67.44;99404.28;5016892;28;45350;-54
2022/09/28 07:41:33;;;;;;;;;3.50;3.50;;;;;13.55;67.07;99409.91;5016896;28;45295;-58
2022/09/28 07:44:04;;;;;;;;;8.60;4.40;;;;;13.57;67.31;99403.28;5016457;28;45677;-59
2022/09/28 07:46:36;;;;;;;;;5.00;2.60;;;;;13.59;66.61;99412.97;5016424;28;45467;-60
2022/09/28 07:49:04;;;;;;;;;4.60;1.80;;;;;13.64;66.43;99423.19;5015224;28;45343;-55
2022/09/28 07:51:30;;;;;;;;;2.40;1.00;;;;;13.66;66.34;99426.53;5015951;28;45485;-57
2022/09/28 07:53:56;;;;;;;;;4.40;2.60;;;;;13.54;66.43;99404.66;5016147;28;45549;-55
2022/09/28 07:56:22;;;;;;;;;3.00;2.00;;;;;13.74;66.53;99433.47;5016609;28;45445;-58
2022/09/28 07:58:48;;;;;;;;;3.00;3.00;;;;;13.75;66.11;99435.97;5016641;28;45418;-58
2022/09/28 08:01:15;;;;;;;;;4.60;3.00;;;;;13.69;65.91;99429.59;5016752;28;45334;-57
2022/09/28 08:03:44;;;;;;;;;2.60;2.60;;;;;13.62;66.30;99412.44;5016448;28;46313;-56
2022/09/28 08:06:11;;;;;;;;;6.20;5.00;;;;;13.80;66.04;99438.75;4998523;28;45253;-55
2022/09/28 08:08:38;;;;;;;;;3.80;3.00;;;;;13.79;65.52;99439.88;4998678;28;45448;-55
2022/09/28 08:11:09;;;;;;;;;3.80;2.80;;;;;13.81;65.50;99442.31;5016642;28;45331;-55
2022/09/28 08:13:36;;;;;;;;;2.40;2.40;;;;;13.82;65.30;99444.84;5016171;28;45374;-56
2022/09/28 08:16:02;;;;;;;;;3.00;3.00;;;;;13.84;65.35;99439.06;5016242;28;45532;-55
2022/09/28 08:18:28;;;;;;;;;4.40;3.00;;;;;13.67;65.17;99420.72;5013102;28;45350;-56
2022/09/28 08:23:47;;;;;;;;;1.00;1.00;;;;;13.82;65.46;99450.34;5006473;28;45814;-58
2022/09/28 08:26:12;;;;;;;;;4.00;2.75;;;;;13.81;65.22;99453.34;4972875;28;45390;-56
2022/09/28 08:28:38;;;;;;;;;5.50;2.00;;;;;13.81;64.97;99450.59;4996651;28;45383;-57
2022/09/28 08:31:06;;;;;;;;;5.00;4.00;;;;;13.85;65.67;99450.91;5014854;28;45328;-54
2022/09/28 08:33:31;;;;;;;;;3.00;3.00;;;;;13.90;65.04;99460.06;5014640;28;46288;-57
2022/09/28 08:35:58;;;;;;;;;3.25;3.00;;;;;13.38;64.29;99362.34;5013668;28;45502;-57
2022/09/28 08:38:27;;;;;;;;;1.80;1.80;;;;;13.86;63.07;99436.03;5014768;28;45801;-60
2022/09/28 08:41:12;;;;;;;;;1.80;1.40;;;;;13.91;63.57;99447.94;5014874;28;45636;-59
2022/09/28 08:44:01;;;;;;;;;3.00;1.00;;;;;13.96;62.64;99450.72;5014926;28;46089;-59
2022/09/28 08:46:33;;;;;;;;;1.00;1.00;;;;;13.73;61.53;99421.63;5007546;28;45447;-59
2022/09/28 08:49:17;;;;;;;;;1.80;1.00;;;;;13.96;61.09;99445.22;4998294;28;45424;-59
2022/09/28 08:52:01;;;;;;;;;2.00;2.00;;;;;14.10;61.26;99461.28;4982864;28;45519;-58
2022/09/28 08:54:47;;;;;;;;;3.00;1.00;;;;;14.14;60.02;99456.88;5015730;28;46251;-58
2022/09/28 08:57:15;;;;;;;;;5.00;1.40;;;;;14.18;60.90;99449.72;5015472;28;45392;-59
2022/09/28 08:59:40;;;;;;;;;3.00;2.00;;;;;14.26;59.70;99464.97;4981925;28;45408;-60
2022/09/28 09:02:13;;;;;;;;;1.00;1.00;;;;;14.33;59.37;99462.78;5015896;28;45278;-59
2022/09/28 09:04:39;;;;;;;;;1.60;1.00;;;;;14.26;58.01;99450.31;4998152;28;46235;-60
2022/09/28 09:07:11;;;;;;;;;2.75;0.50;;;;;14.35;58.27;99456.97;4997870;28;45761;-59
2022/09/28 09:09:51;;;;;;;;;3.40;1.20;;;;;14.46;58.82;99474.44;4987801;28;45552;-58
2022/09/28 09:12:47;;;;;;;;;1.00;1.00;;;;;14.49;58.16;99463.69;5014900;28;45381;-59
2022/09/28 09:15:48;;;;;;;;;1.00;1.00;;;;;14.53;57.96;99463.97;5004512;28;46981;-60
2022/09/28 09:18:29;;;;;;;;;3.00;1.00;;;;;14.54;57.25;99465.63;4996384;28;45557;-60
2022/09/28 09:20:55;;;;;;;;;1.20;0.80;;;;;14.18;56.96;99413.88;4996516;28;45420;-60
2022/09/28 09:23:39;;;;;;;;;1.80;1.00;;;;;14.37;57.92;99441.81;5004684;28;45465;-59
2022/09/28 09:26:16;;;;;;;;;0.80;0.80;;;;;14.38;57.48;99453.69;5009276;28;45747;-58
2022/09/28 09:28:52;;;;;;;;;1.00;1.00;;;;;14.48;57.18;99461.19;4991547;28;45505;-60
2022/09/28 09:31:27;;;;;;;;;1.40;1.40;;;;;14.57;57.50;99459.56;5013586;28;45431;-58
2022/09/28 09:34:22;;;;;;;;;1.60;1.60;;;;;14.64;56.25;99465.66;4995874;28;45483;-59
2022/09/28 09:37:06;;;;;;;;;1.00;1.00;;;;;14.56;56.80;99430.31;5013701;28;46750;-58
2022/09/28 09:39:59;;;;;;;;;4.00;2.20;;;;;14.77;56.47;99466.28;5013310;28;45518;-58
2022/09/28 09:42:40;;;;;;;;;2.00;1.80;;;;;14.72;55.86;99458.78;5030860;28;46011;-59
2022/09/28 09:45:18;;;;;;;;;1.00;1.00;;;;;14.74;55.30;99458.56;5007216;28;45554;-59
2022/09/28 09:47:47;;;;;;;;;2.00;2.00;;;;;14.72;55.29;99456.03;4995645;28;46462;-56
2022/09/28 09:50:34;;;;;;;;;1.60;0.20;;;;;14.87;55.52;99465.50;4978592;28;45492;-59
2022/09/28 09:53:09;;;;;;;;;1.00;1.00;;;;;14.93;54.66;99460.84;5013081;28;45446;-60
2022/09/28 09:55:49;;;;;;;;;1.20;1.00;;;;;14.96;54.47;99465.78;4980869;28;45778;-58
2022/09/28 09:58:21;;;;;;;;;1.60;1.00;;;;;14.97;54.39;99451.72;4996468;28;46708;-59
2022/09/28 10:00:49;;;;;;;;;4.40;2.80;;;;;14.94;53.50;99440.38;4995957;28;45393;-60
2022/09/28 10:03:27;;;;;;;;;1.80;1.80;;;;;14.96;54.22;99439.00;4997195;28;45863;-60
2022/09/28 10:06:02;;;;;;;;;1.00;1.00;;;;;15.13;54.06;99460.88;4997257;28;45600;-59
2022/09/28 10:08:28;;;;;;;;;3.00;1.60;;;;;15.26;52.12;99459.50;4971436;28;45434;-59
2022/09/28 10:11:01;;;;;;;;;2.75;2.75;;;;;15.21;53.92;99423.56;5004918;28;45292;-59
2022/09/28 10:13:28;;;;;;;;;3.80;2.80;;;;;15.59;53.70;99459.25;4979820;28;45397;-59
2022/09/28 10:15:54;;;;;;;;;2.80;1.00;;;;;15.63;52.81;99432.69;5015633;28;45406;-60
2022/09/28 10:18:20;;;;;;;;;1.00;1.00;;;;;15.62;52.40;99427.44;5000924;28;46328;-58
2022/09/28 10:20:45;;;;;;;;;5.00;2.80;;;;;15.69;52.82;99439.03;5026214;28;45460;-58
2022/09/28 10:23:32;;;;;;;;;2.25;2.25;;;;;15.77;52.19;99455.06;5018837;28;45416;-58
2022/09/28 10:26:14;;;;;;;;;2.20;2.20;;;;;15.76;51.89;99455.34;5036613;28;45535;-59
2022/09/28 10:29:00;;;;;;;;;0.20;0.20;;;;;15.75;51.38;99453.69;5018557;28;45575;-59
2022/09/28 10:31:39;;;;;;;;;3.60;1.00;;;;;15.79;51.80;99444.56;5006432;28;45375;-56
2022/09/28 10:34:06;;;;;;;;;2.00;1.00;;;;;15.85;50.82;99443.44;5035067;28;45384;-58
2022/09/28 10:36:37;;;;;;;;;4.80;2.60;;;;;15.80;52.06;99446.19;5016512;28;45452;-59
2022/09/28 10:39:06;;;;;;;;;2.00;2.00;;;;;15.86;51.63;99444.28;5005213;28;45901;-59
2022/09/28 10:41:32;;;;;;;;;2.20;2.20;;;;;15.96;51.71;99449.00;4980938;28;45407;-57
2022/09/28 10:44:05;;;;;;;;;3.00;3.00;;;;;15.91;52.08;99437.91;4982401;28;45441;-59
2022/09/28 10:46:32;;;;;;;;;2.80;2.00;;;;;15.86;51.52;99438.75;4983455;28;45837;-59
2022/09/28 10:49:02;;;;;;;;;4.60;3.60;;;;;15.97;51.67;99439.59;4998671;28;45700;-60
2022/09/28 10:51:48;;;;;;;;;4.00;3.00;;;;;16.00;51.06;99405.81;4998636;28;45674;-60
2022/09/28 10:54:16;;;;;;;;;3.00;3.00;;;;;16.35;50.67;99441.97;4997553;28;45427;-59
2022/09/28 10:56:41;;;;;;;;;3.20;3.20;;;;;16.46;49.65;99429.75;5016251;28;45488;-58
2022/09/28 10:59:29;;;;;;;;;3.00;3.00;;;;;16.73;49.95;99444.28;4996975;28;46087;-59
2022/09/28 11:02:11;;;;;;;;;1.20;0.20;;;;;16.94;49.26;99447.78;4979659;28;46226;-59
2022/09/28 11:04:41;;;;;;;;;2.00;2.00;;;;;16.93;48.29;99435.84;4978588;28;45444;-58
2022/09/28 11:07:19;;;;;;;;;2.40;1.20;;;;;17.24;48.12;99434.84;4945012;28;45428;-59
2022/09/28 11:09:48;;;;;;;;;2.60;2.40;;;;;17.25;47.76;99435.69;4982988;28;46528;-59
2022/09/28 11:12:19;;;;;;;;;4.60;3.00;;;;;17.24;48.35;99442.34;5010145;28;45509;-60
2022/09/28 11:14:45;;;;;;;;;2.60;2.00;;;;;17.07;47.55;99425.00;4992331;28;45515;-59
2022/09/28 11:17:27;;;;;;;;;3.20;2.00;;;;;17.27;48.51;99444.53;4984257;28;45508;-61
2022/09/28 11:19:57;;;;;;;;;1.80;1.80;;;;;17.14;48.10;99413.56;4994792;28;46127;-60
2022/09/28 11:22:40;;;;;;;;;2.20;2.20;;;;;17.28;47.11;99438.69;4995095;28;45449;-59
2022/09/28 11:25:21;;;;;;;;;1.60;1.60;;;;;17.15;48.42;99434.66;5013219;28;45405;-61
2022/09/28 11:27:49;;;;;;;;;2.80;2.40;;;;;16.88;47.70;99399.88;5016458;28;45461;-62
2022/09/28 11:30:32;;;;;;;;;1.00;1.00;;;;;16.95;47.91;99432.81;5004770;28;46611;-60
2022/09/28 11:33:06;;;;;;;;;2.80;2.80;;;;;16.93;48.42;99452.47;5004338;28;45819;-57
2022/09/28 11:35:40;;;;;;;;;3.20;1.00;;;;;16.59;49.01;99419.16;4994960;28;45805;-59
2022/09/28 11:38:13;;;;;;;;;4.20;3.20;;;;;16.65;49.29;99443.75;4994961;28;45337;-59
2022/09/28 11:40:53;;;;;;;;;1.80;1.80;;;;;16.47;49.54;99420.31;5005238;28;45839;-61
2022/09/28 11:44:04;;;;;;;;;2.20;2.20;;;;;16.50;49.67;99441.88;5032745;28;45909;-60
2022/09/28 11:46:31;;;;;;;;;3.00;3.00;;;;;16.50;49.81;99439.13;4931410;28;45540;-60
2022/09/28 11:49:01;;;;;;;;;2.80;2.80;;;;;16.45;49.82;99438.31;4915878;28;45929;-61
2022/09/28 11:51:29;;;;;;;;;3.00;2.20;;;;;16.29;49.79;99434.78;4951652;28;45551;-60
2022/09/28 11:54:05;;;;;;;;;1.40;1.40;;;;;16.17;50.18;99427.63;4998004;28;46264;-59
2022/09/28 11:56:42;;;;;;;;;2.80;2.80;;;;;15.94;50.00;99393.09;5015308;28;45406;-61
2022/09/28 11:59:51;;;;;;;;;2.00;2.00;;;;;16.03;50.00;99429.31;5010507;28;45915;-58
2022/09/28 12:02:30;;;;;;;;;2.20;2.00;;;;;16.11;50.45;99428.75;5008135;28;47224;-59